createdAt,value
2018-12-16T00:00:43.419Z,1019.17
2018-12-16T00:01:44.163Z,1019.18
2018-12-16T00:02:44.181Z,1019.16
2018-12-16T00:03:44.164Z,1019.12
2018-12-16T00:04:49.767Z,1019.10
2018-12-16T00:05:43.760Z,1019.06
2018-12-16T00:06:43.162Z,1019.06
2018-12-16T00:07:43.665Z,1019.07
2018-12-16T00:08:43.663Z,1019.04
2018-12-16T00:09:43.057Z,1019.04
2018-12-16T00:10:43.062Z,1019.03
2018-12-16T00:11:43.075Z,1019.04
2018-12-16T00:12:42.968Z,1018.94
2018-12-16T00:13:42.910Z,1018.98
2018-12-16T00:14:42.875Z,1018.98
2018-12-16T00:15:43.219Z,1018.94
2018-12-16T00:16:43.264Z,1018.93
2018-12-16T00:17:44.574Z,1018.89
2018-12-16T00:18:43.661Z,1018.91
2018-12-16T00:19:43.660Z,1018.82
2018-12-16T00:20:42.661Z,1018.83
2018-12-16T00:21:42.690Z,1018.81
2018-12-16T00:22:42.595Z,1018.76
2018-12-16T00:23:43.167Z,1018.72
2018-12-16T00:24:43.170Z,1018.71
2018-12-16T00:25:43.164Z,1018.71
2018-12-16T00:26:42.501Z,1018.68
2018-12-16T00:27:42.466Z,1018.70
2018-12-16T00:28:42.380Z,1018.69
2018-12-16T00:29:42.346Z,1018.70
2018-12-16T00:30:43.164Z,1018.73
2018-12-16T00:31:42.724Z,1018.73
2018-12-16T00:32:43.163Z,1018.72
2018-12-16T00:33:42.234Z,1018.70
2018-12-16T00:34:42.171Z,1018.69
2018-12-16T00:35:42.664Z,1018.64
2018-12-16T00:36:42.228Z,1018.64
2018-12-16T00:37:42.231Z,1018.59
2018-12-16T00:38:42.030Z,1018.57
2018-12-16T00:39:42.007Z,1018.56
2018-12-16T00:40:41.955Z,1018.54
2018-12-16T00:41:41.916Z,1018.54
2018-12-16T00:42:41.948Z,1018.56
2018-12-16T00:43:41.848Z,1018.53
2018-12-16T00:44:41.814Z,1018.50
2018-12-16T00:45:41.789Z,1018.47
2018-12-16T00:46:41.741Z,1018.45
2018-12-16T00:47:41.772Z,1018.45
2018-12-16T00:48:41.666Z,1018.46
2018-12-16T00:49:42.166Z,1018.45
2018-12-16T00:50:42.165Z,1018.43
2018-12-16T00:51:42.170Z,1018.42
2018-12-16T00:52:41.585Z,1018.41
2018-12-16T00:53:41.509Z,1018.40
2018-12-16T00:54:41.456Z,1018.40
2018-12-16T00:55:41.423Z,1018.35
2018-12-16T00:56:41.432Z,1018.39
2018-12-16T00:57:41.389Z,1018.36
2018-12-16T00:58:41.374Z,1018.38
2018-12-16T00:59:41.343Z,1018.40
2018-12-16T01:00:42.164Z,1018.36
2018-12-16T01:01:41.208Z,1018.37
2018-12-16T01:02:41.174Z,1018.39
2018-12-16T01:03:41.141Z,1018.35
2018-12-16T01:04:41.227Z,1018.40
2018-12-16T01:05:41.078Z,1018.37
2018-12-16T01:06:41.103Z,1018.37
2018-12-16T01:07:40.996Z,1018.32
2018-12-16T01:08:41.222Z,1018.33
2018-12-16T01:09:40.971Z,1018.30
2018-12-16T01:10:40.942Z,1018.31
2018-12-16T01:11:40.854Z,1018.29
2018-12-16T01:12:40.817Z,1018.29
2018-12-16T01:13:40.781Z,1018.31
2018-12-16T01:14:41.670Z,1018.28
2018-12-16T01:15:40.753Z,1018.29
2018-12-16T01:16:40.677Z,1018.24
2018-12-16T01:17:40.644Z,1018.25
2018-12-16T01:18:40.605Z,1018.25
2018-12-16T01:19:40.614Z,1018.25
2018-12-16T01:20:40.535Z,1018.24
2018-12-16T01:21:40.495Z,1018.22
2018-12-16T01:22:43.644Z,1018.22
2018-12-16T01:23:40.433Z,1018.20
2018-12-16T01:24:40.395Z,1018.15
2018-12-16T01:25:40.403Z,1018.15
2018-12-16T01:26:40.321Z,1018.17
2018-12-16T01:27:40.287Z,1018.14
2018-12-16T01:28:40.294Z,1018.15
2018-12-16T01:29:40.215Z,1018.11
2018-12-16T01:30:40.181Z,1018.10
2018-12-16T01:31:40.146Z,1018.08
2018-12-16T01:32:40.672Z,1018.01
2018-12-16T01:33:40.224Z,1018.00
2018-12-16T01:34:40.040Z,1017.94
2018-12-16T01:35:40.675Z,1017.91
2018-12-16T01:36:39.967Z,1017.92
2018-12-16T01:37:39.931Z,1017.91
2018-12-16T01:38:40.238Z,1017.91
2018-12-16T01:39:40.675Z,1017.91
2018-12-16T01:40:40.673Z,1017.87
2018-12-16T01:41:40.668Z,1017.88
2018-12-16T01:42:40.673Z,1017.89
2018-12-16T01:43:39.767Z,1017.85
2018-12-16T01:44:39.679Z,1017.85
2018-12-16T01:45:40.176Z,1017.82
2018-12-16T01:46:39.614Z,1017.79
2018-12-16T01:47:39.574Z,1017.78
2018-12-16T01:48:39.601Z,1017.77
2018-12-16T01:49:39.744Z,1017.78
2018-12-16T01:50:39.463Z,1017.70
2018-12-16T01:51:40.170Z,1017.68
2018-12-16T01:52:39.431Z,1017.71
2018-12-16T01:53:40.174Z,1017.68
2018-12-16T01:54:39.372Z,1017.67
2018-12-16T01:55:40.224Z,1017.64
2018-12-16T01:56:40.174Z,1017.63
2018-12-16T01:57:40.174Z,1017.60
2018-12-16T01:58:39.191Z,1017.61
2018-12-16T01:59:39.201Z,1017.62
2018-12-16T02:00:39.670Z,1017.59
2018-12-16T02:01:39.672Z,1017.59
2018-12-16T02:02:39.675Z,1017.58
2018-12-16T02:03:39.674Z,1017.53
2018-12-16T02:04:39.014Z,1017.54
2018-12-16T02:05:38.929Z,1017.49
2018-12-16T02:06:38.894Z,1017.53
2018-12-16T02:07:38.906Z,1017.46
2018-12-16T02:08:39.677Z,1017.47
2018-12-16T02:09:38.787Z,1017.47
2018-12-16T02:10:38.751Z,1017.43
2018-12-16T02:11:38.762Z,1017.47
2018-12-16T02:12:39.680Z,1017.42
2018-12-16T02:13:38.690Z,1017.39
2018-12-16T02:14:38.610Z,1017.45
2018-12-16T02:15:38.623Z,1017.42
2018-12-16T02:16:38.733Z,1017.38
2018-12-16T02:17:38.506Z,1017.40
2018-12-16T02:18:38.470Z,1017.38
2018-12-16T02:19:38.434Z,1017.38
2018-12-16T02:20:38.406Z,1017.38
2018-12-16T02:21:38.402Z,1017.38
2018-12-16T02:22:38.328Z,1017.39
2018-12-16T02:23:38.286Z,1017.41
2018-12-16T02:24:38.251Z,1017.42
2018-12-16T02:25:38.221Z,1017.34
2018-12-16T02:26:38.224Z,1017.35
2018-12-16T02:27:38.154Z,1017.34
2018-12-16T02:28:38.114Z,1017.36
2018-12-16T02:29:38.068Z,1017.35
2018-12-16T02:30:38.038Z,1017.35
2018-12-16T02:31:38.046Z,1017.37
2018-12-16T02:32:37.961Z,1017.36
2018-12-16T02:33:37.989Z,1017.32
2018-12-16T02:34:37.891Z,1017.31
2018-12-16T02:35:37.860Z,1017.32
2018-12-16T02:36:37.890Z,1017.33
2018-12-16T02:37:37.790Z,1017.36
2018-12-16T02:38:37.751Z,1017.32
2018-12-16T02:39:37.718Z,1017.33
2018-12-16T02:40:37.676Z,1017.33
2018-12-16T02:41:37.703Z,1017.31
2018-12-16T02:42:41.583Z,1017.28
2018-12-16T02:43:40.275Z,1017.28
2018-12-16T02:44:37.537Z,1017.30
2018-12-16T02:45:37.498Z,1017.25
2018-12-16T02:46:37.573Z,1017.27
2018-12-16T02:47:37.733Z,1017.25
2018-12-16T02:48:37.395Z,1017.23
2018-12-16T02:49:37.361Z,1017.26
2018-12-16T02:50:38.182Z,1017.25
2018-12-16T02:51:37.285Z,1017.23
2018-12-16T02:52:37.318Z,1017.20
2018-12-16T02:53:37.209Z,1017.19
2018-12-16T02:54:37.204Z,1017.15
2018-12-16T02:55:37.683Z,1017.14
2018-12-16T02:56:37.126Z,1017.17
2018-12-16T02:57:37.131Z,1017.10
2018-12-16T02:58:37.032Z,1017.09
2018-12-16T02:59:37.679Z,1017.09
2018-12-16T03:00:36.976Z,1017.06
2018-12-16T03:01:36.932Z,1017.06
2018-12-16T03:02:36.959Z,1017.04
2018-12-16T03:03:37.674Z,1017.03
2018-12-16T03:04:36.821Z,1017.00
2018-12-16T03:05:36.794Z,1016.96
2018-12-16T03:06:36.747Z,1016.95
2018-12-16T03:07:37.243Z,1016.92
2018-12-16T03:08:36.728Z,1016.93
2018-12-16T03:09:36.641Z,1016.94
2018-12-16T03:10:36.605Z,1016.95
2018-12-16T03:11:36.734Z,1016.96
2018-12-16T03:12:36.538Z,1016.91
2018-12-16T03:13:36.738Z,1016.93
2018-12-16T03:14:36.463Z,1016.88
2018-12-16T03:15:36.453Z,1016.86
2018-12-16T03:16:36.395Z,1016.84
2018-12-16T03:17:36.398Z,1016.80
2018-12-16T03:18:37.182Z,1016.80
2018-12-16T03:19:37.201Z,1016.81
2018-12-16T03:20:36.349Z,1016.80
2018-12-16T03:21:36.229Z,1016.77
2018-12-16T03:22:36.172Z,1016.79
2018-12-16T03:23:36.179Z,1016.78
2018-12-16T03:24:36.103Z,1016.80
2018-12-16T03:25:36.264Z,1016.78
2018-12-16T03:26:36.439Z,1016.82
2018-12-16T03:27:36.166Z,1016.79
2018-12-16T03:28:35.959Z,1016.71
2018-12-16T03:29:35.998Z,1016.73
2018-12-16T03:30:35.887Z,1016.68
2018-12-16T03:31:35.878Z,1016.73
2018-12-16T03:32:35.856Z,1016.67
2018-12-16T03:33:35.792Z,1016.69
2018-12-16T03:34:35.789Z,1016.69
2018-12-16T03:35:36.686Z,1016.67
2018-12-16T03:36:35.675Z,1016.64
2018-12-16T03:37:36.191Z,1016.69
2018-12-16T03:38:35.749Z,1016.64
2018-12-16T03:39:35.734Z,1016.65
2018-12-16T03:40:35.536Z,1016.63
2018-12-16T03:41:36.184Z,1016.64
2018-12-16T03:42:35.458Z,1016.62
2018-12-16T03:43:36.187Z,1016.61
2018-12-16T03:44:36.276Z,1016.56
2018-12-16T03:45:36.185Z,1016.55
2018-12-16T03:46:36.184Z,1016.50
2018-12-16T03:47:36.195Z,1016.49
2018-12-16T03:48:36.183Z,1016.49
2018-12-16T03:49:35.265Z,1016.44
2018-12-16T03:50:35.680Z,1016.43
2018-12-16T03:51:35.133Z,1016.42
2018-12-16T03:52:36.307Z,1016.42
2018-12-16T03:53:35.691Z,1016.36
2018-12-16T03:54:35.238Z,1016.36
2018-12-16T03:55:35.247Z,1016.33
2018-12-16T03:56:34.996Z,1016.27
2018-12-16T03:57:35.714Z,1016.27
2018-12-16T03:58:34.887Z,1016.28
2018-12-16T03:59:35.686Z,1016.28
2018-12-16T04:00:34.867Z,1016.24
2018-12-16T04:01:34.841Z,1016.22
2018-12-16T04:02:34.743Z,1016.18
2018-12-16T04:03:34.745Z,1016.20
2018-12-16T04:04:34.663Z,1016.13
2018-12-16T04:05:34.671Z,1016.13
2018-12-16T04:06:35.181Z,1016.15
2018-12-16T04:07:34.556Z,1016.15
2018-12-16T04:08:34.533Z,1016.10
2018-12-16T04:09:34.498Z,1016.07
2018-12-16T04:10:34.747Z,1016.06
2018-12-16T04:11:34.423Z,1016.11
2018-12-16T04:12:34.438Z,1016.07
2018-12-16T04:13:34.342Z,1016.05
2018-12-16T04:14:34.311Z,1016.06
2018-12-16T04:15:35.270Z,1015.98
2018-12-16T04:16:34.734Z,1015.99
2018-12-16T04:17:35.762Z,1015.96
2018-12-16T04:18:34.694Z,1015.95
2018-12-16T04:19:34.146Z,1015.93
2018-12-16T04:20:34.691Z,1015.91
2018-12-16T04:21:34.152Z,1015.92
2018-12-16T04:22:34.066Z,1015.88
2018-12-16T04:23:33.987Z,1015.89
2018-12-16T04:24:33.947Z,1015.86
2018-12-16T04:25:33.929Z,1015.85
2018-12-16T04:26:33.881Z,1015.85
2018-12-16T04:27:33.888Z,1015.83
2018-12-16T04:28:33.799Z,1015.87
2018-12-16T04:29:34.688Z,1015.85
2018-12-16T04:30:33.732Z,1015.82
2018-12-16T04:31:33.699Z,1015.84
2018-12-16T04:32:33.747Z,1015.85
2018-12-16T04:33:33.619Z,1015.82
2018-12-16T04:34:33.675Z,1015.83
2018-12-16T04:35:33.547Z,1015.82
2018-12-16T04:36:33.516Z,1015.83
2018-12-16T04:37:33.743Z,1015.80
2018-12-16T04:38:33.450Z,1015.81
2018-12-16T04:39:33.412Z,1015.81
2018-12-16T04:40:33.368Z,1015.77
2018-12-16T04:41:34.189Z,1015.80
2018-12-16T04:42:33.745Z,1015.77
2018-12-16T04:43:33.262Z,1015.77
2018-12-16T04:44:33.237Z,1015.74
2018-12-16T04:45:34.189Z,1015.68
2018-12-16T04:46:33.151Z,1015.72
2018-12-16T04:47:33.244Z,1015.65
2018-12-16T04:48:33.094Z,1015.70
2018-12-16T04:49:33.687Z,1015.65
2018-12-16T04:50:33.032Z,1015.67
2018-12-16T04:51:32.985Z,1015.61
2018-12-16T04:52:32.988Z,1015.62
2018-12-16T04:53:36.927Z,1015.58
2018-12-16T04:54:32.909Z,1015.57
2018-12-16T04:55:32.833Z,1015.57
2018-12-16T04:56:32.794Z,1015.56
2018-12-16T04:57:32.758Z,1015.53
2018-12-16T04:58:32.833Z,1015.52
2018-12-16T04:59:32.730Z,1015.51
2018-12-16T05:00:32.659Z,1015.50
2018-12-16T05:01:32.619Z,1015.48
2018-12-16T05:02:32.585Z,1015.46
2018-12-16T05:03:32.595Z,1015.49
2018-12-16T05:04:33.191Z,1015.46
2018-12-16T05:05:32.475Z,1015.44
2018-12-16T05:06:33.204Z,1015.40
2018-12-16T05:07:32.399Z,1015.34
2018-12-16T05:08:32.405Z,1015.32
2018-12-16T05:09:32.347Z,1015.31
2018-12-16T05:10:33.239Z,1015.27
2018-12-16T05:11:32.257Z,1015.23
2018-12-16T05:12:32.222Z,1015.21
2018-12-16T05:13:32.223Z,1015.23
2018-12-16T05:14:32.152Z,1015.16
2018-12-16T05:15:32.690Z,1015.17
2018-12-16T05:16:32.111Z,1015.14
2018-12-16T05:17:32.038Z,1015.07
2018-12-16T05:18:32.016Z,1015.09
2018-12-16T05:19:32.019Z,1015.11
2018-12-16T05:20:31.926Z,1015.09
2018-12-16T05:21:32.609Z,1015.07
2018-12-16T05:22:32.686Z,1015.11
2018-12-16T05:23:32.696Z,1015.07
2018-12-16T05:24:31.861Z,1015.10
2018-12-16T05:25:32.691Z,1015.11
2018-12-16T05:26:31.713Z,1015.13
2018-12-16T05:27:31.679Z,1015.06
2018-12-16T05:28:31.642Z,1015.13
2018-12-16T05:29:31.780Z,1015.16
2018-12-16T05:30:31.571Z,1015.13
2018-12-16T05:31:32.198Z,1015.08
2018-12-16T05:32:32.812Z,1015.13
2018-12-16T05:33:31.463Z,1015.04
2018-12-16T05:34:31.482Z,1015.06
2018-12-16T05:35:31.392Z,1015.09
2018-12-16T05:36:32.193Z,1015.03
2018-12-16T05:37:32.193Z,1014.97
2018-12-16T05:38:31.286Z,1014.99
2018-12-16T05:39:31.306Z,1014.99
2018-12-16T05:40:31.204Z,1014.93
2018-12-16T05:41:31.171Z,1014.93
2018-12-16T05:42:31.140Z,1014.94
2018-12-16T05:43:31.097Z,1014.97
2018-12-16T05:44:31.114Z,1014.98
2018-12-16T05:45:31.026Z,1014.96
2018-12-16T05:46:30.995Z,1014.95
2018-12-16T05:47:30.952Z,1014.90
2018-12-16T05:48:31.693Z,1014.86
2018-12-16T05:49:30.936Z,1014.88
2018-12-16T05:50:31.244Z,1014.83
2018-12-16T05:51:31.696Z,1014.85
2018-12-16T05:52:31.689Z,1014.83
2018-12-16T05:53:31.701Z,1014.78
2018-12-16T05:54:30.701Z,1014.75
2018-12-16T05:55:30.751Z,1014.79
2018-12-16T05:56:31.193Z,1014.79
2018-12-16T05:57:30.616Z,1014.78
2018-12-16T05:58:30.554Z,1014.77
2018-12-16T05:59:31.191Z,1014.77
2018-12-16T06:00:32.374Z,1014.79
2018-12-16T06:01:31.190Z,1014.76
2018-12-16T06:02:31.189Z,1014.73
2018-12-16T06:03:33.224Z,1014.70
2018-12-16T06:04:30.337Z,1014.75
2018-12-16T06:05:30.360Z,1014.79
2018-12-16T06:06:30.263Z,1014.78
2018-12-16T06:07:30.236Z,1014.77
2018-12-16T06:08:30.188Z,1014.70
2018-12-16T06:09:30.166Z,1014.73
2018-12-16T06:10:30.173Z,1014.73
2018-12-16T06:11:30.084Z,1014.67
2018-12-16T06:12:30.045Z,1014.65
2018-12-16T06:13:30.686Z,1014.63
2018-12-16T06:14:29.977Z,1014.59
2018-12-16T06:15:29.982Z,1014.59
2018-12-16T06:16:29.941Z,1014.62
2018-12-16T06:17:29.873Z,1014.58
2018-12-16T06:18:29.830Z,1014.51
2018-12-16T06:19:29.800Z,1014.52
2018-12-16T06:20:29.757Z,1014.48
2018-12-16T06:21:29.764Z,1014.47
2018-12-16T06:22:29.761Z,1014.42
2018-12-16T06:23:29.672Z,1014.42
2018-12-16T06:24:30.189Z,1014.36
2018-12-16T06:25:29.585Z,1014.34
2018-12-16T06:26:29.591Z,1014.31
2018-12-16T06:27:29.560Z,1014.29
2018-12-16T06:28:29.469Z,1014.28
2018-12-16T06:29:29.437Z,1014.25
2018-12-16T06:30:29.392Z,1014.21
2018-12-16T06:31:29.354Z,1014.20
2018-12-16T06:32:29.364Z,1014.15
2018-12-16T06:33:29.288Z,1014.21
2018-12-16T06:34:29.247Z,1014.17
2018-12-16T06:35:29.210Z,1014.20
2018-12-16T06:36:29.179Z,1014.17
2018-12-16T06:37:29.178Z,1014.16
2018-12-16T06:38:29.110Z,1014.13
2018-12-16T06:39:29.068Z,1014.18
2018-12-16T06:40:29.036Z,1014.17
2018-12-16T06:41:28.996Z,1014.18
2018-12-16T06:42:29.277Z,1014.21
2018-12-16T06:43:28.924Z,1014.22
2018-12-16T06:44:28.885Z,1014.18
2018-12-16T06:45:28.852Z,1014.23
2018-12-16T06:46:28.836Z,1014.23
2018-12-16T06:47:28.825Z,1014.16
2018-12-16T06:48:28.786Z,1014.27
2018-12-16T06:49:29.715Z,1014.28
2018-12-16T06:50:28.666Z,1014.35
2018-12-16T06:51:28.631Z,1014.38
2018-12-16T06:52:28.651Z,1014.46
2018-12-16T06:53:28.605Z,1014.50
2018-12-16T06:54:28.526Z,1014.54
2018-12-16T06:55:28.485Z,1014.53
2018-12-16T06:56:28.451Z,1014.55
2018-12-16T06:57:28.413Z,1014.56
2018-12-16T06:58:28.461Z,1014.53
2018-12-16T06:59:28.344Z,1014.50
2018-12-16T07:00:28.302Z,1014.49
2018-12-16T07:01:28.271Z,1014.45
2018-12-16T07:02:28.233Z,1014.39
2018-12-16T07:03:28.234Z,1014.33
2018-12-16T07:04:28.254Z,1014.34
2018-12-16T07:05:28.690Z,1014.32
2018-12-16T07:06:28.090Z,1014.26
2018-12-16T07:07:28.689Z,1014.29
2018-12-16T07:08:28.069Z,1014.24
2018-12-16T07:09:27.978Z,1014.20
2018-12-16T07:10:27.940Z,1014.23
2018-12-16T07:11:27.907Z,1014.22
2018-12-16T07:12:27.869Z,1014.20
2018-12-16T07:13:27.971Z,1014.24
2018-12-16T07:14:27.917Z,1014.23
2018-12-16T07:15:27.758Z,1014.23
2018-12-16T07:16:28.694Z,1014.24
2018-12-16T07:17:27.699Z,1014.26
2018-12-16T07:18:27.663Z,1014.23
2018-12-16T07:19:27.741Z,1014.19
2018-12-16T07:20:27.587Z,1014.19
2018-12-16T07:21:27.538Z,1014.15
2018-12-16T07:22:27.504Z,1014.17
2018-12-16T07:23:27.486Z,1014.22
2018-12-16T07:24:27.483Z,1014.24
2018-12-16T07:25:27.429Z,1014.22
2018-12-16T07:26:27.359Z,1014.25
2018-12-16T07:27:27.332Z,1014.20
2018-12-16T07:28:27.284Z,1014.17
2018-12-16T07:29:27.312Z,1014.20
2018-12-16T07:30:27.245Z,1014.23
2018-12-16T07:31:27.188Z,1014.20
2018-12-16T07:32:27.140Z,1014.14
2018-12-16T07:33:27.106Z,1014.17
2018-12-16T07:34:27.113Z,1014.10
2018-12-16T07:36:27.001Z,1014.10
2018-12-16T07:37:26.971Z,1014.08
2018-12-16T07:38:26.926Z,1014.11
2018-12-16T07:39:26.934Z,1014.10
2018-12-16T07:40:26.896Z,1014.06
2018-12-16T07:41:26.825Z,1014.07
2018-12-16T07:42:26.806Z,1014.05
2018-12-16T07:43:26.766Z,1014.06
2018-12-16T07:44:26.757Z,1014.07
2018-12-16T07:45:26.698Z,1014.04
2018-12-16T07:46:26.682Z,1014.05
2018-12-16T07:47:26.608Z,1014.01
2018-12-16T07:48:26.574Z,1014.00
2018-12-16T07:49:26.529Z,1013.98
2018-12-16T07:50:26.491Z,1013.97
2018-12-16T07:51:26.508Z,1013.95
2018-12-16T07:52:27.215Z,1013.99
2018-12-16T07:53:26.379Z,1013.98
2018-12-16T07:54:26.381Z,1014.01
2018-12-16T07:55:26.315Z,1013.97
2018-12-16T07:56:26.896Z,1013.95
2018-12-16T07:57:27.194Z,1013.96
2018-12-16T07:58:27.204Z,1013.97
2018-12-16T07:59:26.693Z,1013.98
2018-12-16T08:00:26.244Z,1013.98
2018-12-16T08:01:26.119Z,1013.95
2018-12-16T08:02:26.117Z,1013.97
2018-12-16T08:03:26.055Z,1013.96
2018-12-16T08:04:26.005Z,1013.96
2018-12-16T08:05:26.036Z,1013.99
2018-12-16T08:06:25.925Z,1013.96
2018-12-16T08:07:26.262Z,1013.93
2018-12-16T08:08:25.853Z,1013.93
2018-12-16T08:09:25.799Z,1013.96
2018-12-16T08:10:25.821Z,1013.97
2018-12-16T08:11:25.840Z,1013.96
2018-12-16T08:12:25.697Z,1013.96
2018-12-16T08:13:25.659Z,1013.97
2018-12-16T08:14:26.202Z,1013.96
2018-12-16T08:15:25.595Z,1013.97
2018-12-16T08:16:25.591Z,1013.95
2018-12-16T08:17:25.564Z,1013.99
2018-12-16T08:18:25.524Z,1013.95
2018-12-16T08:19:25.465Z,1014.00
2018-12-16T08:20:25.470Z,1013.97
2018-12-16T08:21:25.466Z,1013.91
2018-12-16T08:22:25.341Z,1013.94
2018-12-16T08:23:26.194Z,1013.97
2018-12-16T08:24:25.347Z,1013.98
2018-12-16T08:25:25.228Z,1013.97
2018-12-16T08:26:25.208Z,1013.95
2018-12-16T08:27:25.178Z,1013.94
2018-12-16T08:28:25.124Z,1013.95
2018-12-16T08:29:25.143Z,1013.97
2018-12-16T08:30:25.052Z,1013.98
2018-12-16T08:31:25.019Z,1014.00
2018-12-16T08:32:24.986Z,1014.01
2018-12-16T08:33:24.953Z,1013.99
2018-12-16T08:34:24.954Z,1013.97
2018-12-16T08:35:24.925Z,1013.96
2018-12-16T08:36:25.694Z,1013.99
2018-12-16T08:37:24.833Z,1013.93
2018-12-16T08:38:24.772Z,1013.91
2018-12-16T08:39:24.732Z,1013.92
2018-12-16T08:40:24.739Z,1013.89
2018-12-16T08:41:24.663Z,1013.93
2018-12-16T08:42:24.656Z,1013.94
2018-12-16T08:43:24.638Z,1013.94
2018-12-16T08:44:24.577Z,1013.94
2018-12-16T08:45:24.568Z,1013.90
2018-12-16T08:46:24.491Z,1013.93
2018-12-16T08:47:24.455Z,1013.91
2018-12-16T08:48:24.418Z,1013.95
2018-12-16T08:49:24.417Z,1013.90
2018-12-16T08:50:24.499Z,1013.86
2018-12-16T08:51:24.315Z,1013.86
2018-12-16T08:52:24.275Z,1013.86
2018-12-16T08:53:24.287Z,1013.84
2018-12-16T08:54:30.083Z,1013.85
2018-12-16T08:55:24.214Z,1013.80
2018-12-16T08:56:24.133Z,1013.77
2018-12-16T08:57:24.095Z,1013.78
2018-12-16T08:58:24.054Z,1013.81
2018-12-16T08:59:24.025Z,1013.77
2018-12-16T09:00:24.058Z,1013.77
2018-12-16T09:01:23.956Z,1013.72
2018-12-16T09:02:23.912Z,1013.77
2018-12-16T09:03:23.882Z,1013.74
2018-12-16T09:04:24.703Z,1013.74
2018-12-16T09:05:23.847Z,1013.74
2018-12-16T09:06:23.834Z,1013.76
2018-12-16T09:07:24.705Z,1013.73
2018-12-16T09:08:24.610Z,1013.76
2018-12-16T09:09:24.607Z,1013.69
2018-12-16T09:10:23.642Z,1013.70
2018-12-16T09:11:23.631Z,1013.69
2018-12-16T09:12:23.751Z,1013.70
2018-12-16T09:13:24.199Z,1013.73
2018-12-16T09:14:23.489Z,1013.74
2018-12-16T09:15:23.451Z,1013.77
2018-12-16T09:16:23.419Z,1013.69
2018-12-16T09:17:25.841Z,1013.70
2018-12-16T09:18:23.377Z,1013.69
2018-12-16T09:19:23.315Z,1013.73
2018-12-16T09:20:23.272Z,1013.66
2018-12-16T09:21:23.239Z,1013.66
2018-12-16T09:22:23.262Z,1013.65
2018-12-16T09:23:23.171Z,1013.64
2018-12-16T09:24:23.144Z,1013.64
2018-12-16T09:25:23.105Z,1013.62
2018-12-16T09:26:23.061Z,1013.61
2018-12-16T09:27:23.066Z,1013.56
2018-12-16T09:28:23.609Z,1013.52
2018-12-16T09:29:22.976Z,1013.50
2018-12-16T09:30:22.920Z,1013.46
2018-12-16T09:31:23.725Z,1013.44
2018-12-16T09:32:22.911Z,1013.43
2018-12-16T09:33:22.807Z,1013.38
2018-12-16T09:34:22.773Z,1013.39
2018-12-16T09:35:22.779Z,1013.37
2018-12-16T09:36:22.706Z,1013.34
2018-12-16T09:37:22.669Z,1013.35
2018-12-16T09:38:22.632Z,1013.36
2018-12-16T09:39:22.596Z,1013.31
2018-12-16T09:40:22.752Z,1013.30
2018-12-16T09:41:22.521Z,1013.31
2018-12-16T09:42:22.493Z,1013.24
2018-12-16T09:43:25.610Z,1013.24
2018-12-16T09:44:22.415Z,1013.29
2018-12-16T09:45:22.430Z,1013.35
2018-12-16T09:46:22.345Z,1013.35
2018-12-16T09:47:22.368Z,1013.35
2018-12-16T09:48:22.274Z,1013.31
2018-12-16T09:49:22.242Z,1013.31
2018-12-16T09:50:22.292Z,1013.28
2018-12-16T09:51:22.174Z,1013.25
2018-12-16T09:52:23.661Z,1013.25
2018-12-16T09:53:22.100Z,1013.30
2018-12-16T09:54:22.063Z,1013.26
2018-12-16T09:55:22.764Z,1013.21
2018-12-16T09:56:21.991Z,1013.29
2018-12-16T09:57:21.978Z,1013.30
2018-12-16T09:58:21.920Z,1013.28
2018-12-16T09:59:21.893Z,1013.36
2018-12-16T10:00:21.897Z,1013.34
2018-12-16T10:01:21.815Z,1013.30
2018-12-16T10:02:21.780Z,1013.27
2018-12-16T10:03:21.747Z,1013.24
2018-12-16T10:04:21.743Z,1013.26
2018-12-16T10:05:21.672Z,1013.22
2018-12-16T10:06:21.680Z,1013.23
2018-12-16T10:07:21.652Z,1013.20
2018-12-16T10:08:21.569Z,1013.25
2018-12-16T10:09:21.531Z,1013.21
2018-12-16T10:10:21.500Z,1013.17
2018-12-16T10:11:21.757Z,1013.13
2018-12-16T10:12:21.426Z,1013.12
2018-12-16T10:13:21.389Z,1013.08
2018-12-16T10:14:21.358Z,1013.04
2018-12-16T10:15:21.319Z,1013.02
2018-12-16T10:16:21.326Z,1013.05
2018-12-16T10:17:21.247Z,1013.01
2018-12-16T10:18:21.225Z,1013.01
2018-12-16T10:19:21.174Z,1013.02
2018-12-16T10:20:21.140Z,1013.02
2018-12-16T10:21:21.167Z,1012.96
2018-12-16T10:22:21.070Z,1012.98
2018-12-16T10:23:21.037Z,1013.00
2018-12-16T10:24:21.002Z,1013.03
2018-12-16T10:25:20.969Z,1012.98
2018-12-16T10:26:21.000Z,1012.98
2018-12-16T10:27:20.891Z,1012.94
2018-12-16T10:28:20.861Z,1012.94
2018-12-16T10:29:20.840Z,1012.92
2018-12-16T10:30:20.836Z,1012.90
2018-12-16T10:31:20.835Z,1012.88
2018-12-16T10:32:20.746Z,1012.90
2018-12-16T10:33:20.699Z,1012.89
2018-12-16T10:34:20.651Z,1012.85
2018-12-16T10:35:21.114Z,1012.86
2018-12-16T10:36:20.614Z,1012.86
2018-12-16T10:37:20.537Z,1012.81
2018-12-16T10:38:20.507Z,1012.79
2018-12-16T10:39:20.522Z,1012.76
2018-12-16T10:40:20.435Z,1012.77
2018-12-16T10:41:20.404Z,1012.69
2018-12-16T10:42:20.360Z,1012.69
2018-12-16T10:43:20.327Z,1012.66
2018-12-16T10:44:20.360Z,1012.67
2018-12-16T10:45:20.262Z,1012.62
2018-12-16T10:46:20.223Z,1012.56
2018-12-16T10:47:20.190Z,1012.58
2018-12-16T10:48:20.165Z,1012.51
2018-12-16T10:49:20.151Z,1012.49
2018-12-16T10:50:20.085Z,1012.48
2018-12-16T10:51:20.045Z,1012.49
2018-12-16T10:52:20.020Z,1012.45
2018-12-16T10:53:20.010Z,1012.44
2018-12-16T10:54:19.944Z,1012.48
2018-12-16T10:55:19.902Z,1012.43
2018-12-16T10:56:19.868Z,1012.45
2018-12-16T10:57:20.277Z,1012.41
2018-12-16T10:58:19.798Z,1012.37
2018-12-16T10:59:19.767Z,1012.38
2018-12-16T11:00:20.706Z,1012.37
2018-12-16T11:01:19.698Z,1012.40
2018-12-16T11:02:19.706Z,1012.38
2018-12-16T11:03:19.635Z,1012.33
2018-12-16T11:04:19.597Z,1012.34
2018-12-16T11:05:20.282Z,1012.38
2018-12-16T11:06:19.762Z,1012.33
2018-12-16T11:07:19.485Z,1012.38
2018-12-16T11:08:20.226Z,1012.36
2018-12-16T11:09:19.841Z,1012.35
2018-12-16T11:10:19.378Z,1012.35
2018-12-16T11:11:19.345Z,1012.37
2018-12-16T11:12:19.346Z,1012.35
2018-12-16T11:13:19.325Z,1012.38
2018-12-16T11:14:19.237Z,1012.34
2018-12-16T11:15:19.218Z,1012.36
2018-12-16T11:16:19.195Z,1012.26
2018-12-16T11:17:19.180Z,1012.27
2018-12-16T11:18:19.104Z,1012.29
2018-12-16T11:19:19.134Z,1012.25
2018-12-16T11:20:19.784Z,1012.28
2018-12-16T11:21:18.997Z,1012.27
2018-12-16T11:22:18.974Z,1012.30
2018-12-16T11:23:18.926Z,1012.22
2018-12-16T11:24:18.946Z,1012.24
2018-12-16T11:25:18.887Z,1012.24
2018-12-16T11:26:18.834Z,1012.20
2018-12-16T11:27:18.790Z,1012.19
2018-12-16T11:28:18.790Z,1012.15
2018-12-16T11:29:18.720Z,1012.15
2018-12-16T11:30:18.753Z,1012.11
2018-12-16T11:31:18.679Z,1012.11
2018-12-16T11:32:18.624Z,1012.09
2018-12-16T11:33:18.582Z,1012.06
2018-12-16T11:34:19.212Z,1012.03
2018-12-16T11:35:20.619Z,1012.05
2018-12-16T11:36:18.524Z,1012.06
2018-12-16T11:37:18.452Z,1012.07
2018-12-16T11:38:18.404Z,1012.04
2018-12-16T11:39:18.375Z,1011.99
2018-12-16T11:40:18.433Z,1012.02
2018-12-16T11:41:18.320Z,1011.96
2018-12-16T11:42:19.119Z,1011.97
2018-12-16T11:43:19.215Z,1011.96
2018-12-16T11:44:18.297Z,1011.90
2018-12-16T11:45:18.721Z,1011.89
2018-12-16T11:46:18.133Z,1011.89
2018-12-16T11:47:18.096Z,1011.86
2018-12-16T11:48:18.101Z,1011.85
2018-12-16T11:49:18.092Z,1011.80
2018-12-16T11:50:18.005Z,1011.82
2018-12-16T11:51:17.966Z,1011.73
2018-12-16T11:52:17.915Z,1011.73
2018-12-16T11:53:17.898Z,1011.76
2018-12-16T11:54:17.889Z,1011.70
2018-12-16T11:55:17.813Z,1011.65
2018-12-16T11:56:17.792Z,1011.68
2018-12-16T11:57:17.794Z,1011.67
2018-12-16T11:58:17.757Z,1011.66
2018-12-16T11:59:17.673Z,1011.70
2018-12-16T12:00:17.680Z,1011.65
2018-12-16T12:01:17.601Z,1011.59
2018-12-16T12:02:17.568Z,1011.71
2018-12-16T12:03:17.584Z,1011.64
2018-12-16T12:04:17.496Z,1011.64
2018-12-16T12:05:17.510Z,1011.61
2018-12-16T12:06:17.454Z,1011.61